sensor_id;sensor_type;location;lat;lon;timestamp;P1;durP1;ratioP1;P2;durP2;ratioP2
75496;SDS011;64074;47.540;19.072;2023-08-24T00:01:03;10.88;;;8.88;;
75496;SDS011;64074;47.540;19.072;2023-08-24T00:04:06;10.85;;;8.73;;
75496;SDS011;64074;47.540;19.072;2023-08-24T00:07:11;9.43;;;8.37;;
75496;SDS011;64074;47.540;19.072;2023-08-24T00:10:14;13.43;;;9.00;;
75496;SDS011;64074;47.540;19.072;2023-08-24T00:13:18;11.40;;;9.05;;
75496;SDS011;64074;47.540;19.072;2023-08-24T00:16:22;9.93;;;8.88;;
75496;SDS011;64074;47.540;19.072;2023-08-24T00:19:25;11.02;;;9.18;;
75496;SDS011;64074;47.540;19.072;2023-08-24T00:22:29;10.83;;;9.40;;
75496;SDS011;64074;47.540;19.072;2023-08-24T00:25:32;10.32;;;9.23;;
75496;SDS011;64074;47.540;19.072;2023-08-24T00:28:35;11.55;;;9.23;;
75496;SDS011;64074;47.540;19.072;2023-08-24T00:31:38;11.10;;;9.48;;
75496;SDS011;64074;47.540;19.072;2023-08-24T00:34:41;10.48;;;8.88;;
75496;SDS011;64074;47.540;19.072;2023-08-24T00:37:44;10.37;;;8.93;;
75496;SDS011;64074;47.540;19.072;2023-08-24T00:40:50;11.68;;;9.10;;
75496;SDS011;64074;47.540;19.072;2023-08-24T00:43:56;11.85;;;9.63;;
75496;SDS011;64074;47.540;19.072;2023-08-24T00:47:00;12.13;;;8.93;;
75496;SDS011;64074;47.540;19.072;2023-08-24T00:50:04;10.02;;;8.93;;
75496;SDS011;64074;47.540;19.072;2023-08-24T00:53:08;12.20;;;8.87;;
75496;SDS011;64074;47.540;19.072;2023-08-24T00:56:12;11.23;;;9.18;;
75496;SDS011;64074;47.540;19.072;2023-08-24T00:59:16;11.38;;;8.60;;
75496;SDS011;64074;47.540;19.072;2023-08-24T01:02:19;12.90;;;9.00;;
75496;SDS011;64074;47.540;19.072;2023-08-24T01:05:22;11.88;;;8.32;;
75496;SDS011;64074;47.540;19.072;2023-08-24T01:08:26;11.97;;;8.70;;
75496;SDS011;64074;47.540;19.072;2023-08-24T01:11:38;13.82;;;9.27;;
75496;SDS011;64074;47.540;19.072;2023-08-24T01:14:54;10.65;;;9.02;;
75496;SDS011;64074;47.540;19.072;2023-08-24T01:18:17;11.77;;;9.13;;
75496;SDS011;64074;47.540;19.072;2023-08-24T01:21:23;11.32;;;9.57;;
75496;SDS011;64074;47.540;19.072;2023-08-24T01:27:41;11.73;;;8.98;;
75496;SDS011;64074;47.540;19.072;2023-08-24T01:30:45;14.70;;;9.55;;
75496;SDS011;64074;47.540;19.072;2023-08-24T01:33:50;14.52;;;9.38;;
75496;SDS011;64074;47.540;19.072;2023-08-24T01:36:53;12.85;;;9.57;;
75496;SDS011;64074;47.540;19.072;2023-08-24T01:40:06;11.43;;;9.60;;
75496;SDS011;64074;47.540;19.072;2023-08-24T01:43:14;13.48;;;10.05;;
75496;SDS011;64074;47.540;19.072;2023-08-24T01:46:33;13.15;;;10.35;;
75496;SDS011;64074;47.540;19.072;2023-08-24T01:49:38;11.85;;;9.52;;
75496;SDS011;64074;47.540;19.072;2023-08-24T01:52:43;11.05;;;9.57;;
75496;SDS011;64074;47.540;19.072;2023-08-24T01:55:46;11.47;;;10.20;;
75496;SDS011;64074;47.540;19.072;2023-08-24T01:58:49;11.90;;;9.48;;
75496;SDS011;64074;47.540;19.072;2023-08-24T02:01:52;12.45;;;10.05;;
75496;SDS011;64074;47.540;19.072;2023-08-24T02:04:56;13.95;;;10.15;;
75496;SDS011;64074;47.540;19.072;2023-08-24T02:08:00;13.13;;;9.80;;
75496;SDS011;64074;47.540;19.072;2023-08-24T02:11:03;12.47;;;9.60;;
75496;SDS011;64074;47.540;19.072;2023-08-24T02:14:08;14.00;;;9.68;;
75496;SDS011;64074;47.540;19.072;2023-08-24T02:17:12;12.80;;;9.60;;
75496;SDS011;64074;47.540;19.072;2023-08-24T02:20:16;11.43;;;9.38;;
75496;SDS011;64074;47.540;19.072;2023-08-24T02:23:19;11.50;;;9.45;;
75496;SDS011;64074;47.540;19.072;2023-08-24T02:26:24;10.70;;;9.60;;
75496;SDS011;64074;47.540;19.072;2023-08-24T02:29:27;10.68;;;9.32;;
75496;SDS011;64074;47.540;19.072;2023-08-24T02:32:31;12.02;;;9.35;;
75496;SDS011;64074;47.540;19.072;2023-08-24T02:35:34;11.38;;;9.80;;
75496;SDS011;64074;47.540;19.072;2023-08-24T02:38:38;12.68;;;9.95;;
75496;SDS011;64074;47.540;19.072;2023-08-24T02:41:41;10.20;;;9.00;;
75496;SDS011;64074;47.540;19.072;2023-08-24T02:44:44;11.10;;;9.55;;
75496;SDS011;64074;47.540;19.072;2023-08-24T02:47:47;13.07;;;9.18;;
75496;SDS011;64074;47.540;19.072;2023-08-24T02:50:52;13.13;;;9.57;;
75496;SDS011;64074;47.540;19.072;2023-08-24T02:53:55;10.77;;;9.55;;
75496;SDS011;64074;47.540;19.072;2023-08-24T02:56:59;11.37;;;9.50;;
75496;SDS011;64074;47.540;19.072;2023-08-24T03:00:03;13.85;;;10.10;;
75496;SDS011;64074;47.540;19.072;2023-08-24T03:03:09;12.80;;;9.73;;
75496;SDS011;64074;47.540;19.072;2023-08-24T03:06:12;11.57;;;10.20;;
75496;SDS011;64074;47.540;19.072;2023-08-24T03:09:17;12.63;;;10.15;;
75496;SDS011;64074;47.540;19.072;2023-08-24T03:12:24;15.43;;;10.43;;
75496;SDS011;64074;47.540;19.072;2023-08-24T03:15:27;11.18;;;9.73;;
75496;SDS011;64074;47.540;19.072;2023-08-24T03:18:30;12.80;;;9.90;;
75496;SDS011;64074;47.540;19.072;2023-08-24T03:21:33;14.32;;;10.35;;
75496;SDS011;64074;47.540;19.072;2023-08-24T03:24:36;12.23;;;9.82;;
75496;SDS011;64074;47.540;19.072;2023-08-24T03:27:39;14.37;;;9.47;;
75496;SDS011;64074;47.540;19.072;2023-08-24T03:30:46;15.15;;;10.07;;
75496;SDS011;64074;47.540;19.072;2023-08-24T03:33:51;16.85;;;10.15;;
75496;SDS011;64074;47.540;19.072;2023-08-24T03:36:55;13.77;;;10.40;;
75496;SDS011;64074;47.540;19.072;2023-08-24T03:39:58;12.85;;;10.13;;
75496;SDS011;64074;47.540;19.072;2023-08-24T03:43:01;12.77;;;10.17;;
75496;SDS011;64074;47.540;19.072;2023-08-24T03:46:05;15.45;;;10.70;;
75496;SDS011;64074;47.540;19.072;2023-08-24T03:49:09;12.63;;;10.07;;
75496;SDS011;64074;47.540;19.072;2023-08-24T03:52:11;14.52;;;10.38;;
75496;SDS011;64074;47.540;19.072;2023-08-24T03:55:16;22.73;;;11.70;;
75496;SDS011;64074;47.540;19.072;2023-08-24T03:58:20;26.40;;;11.60;;
75496;SDS011;64074;47.540;19.072;2023-08-24T04:01:23;20.75;;;10.77;;
75496;SDS011;64074;47.540;19.072;2023-08-24T04:04:27;18.70;;;10.45;;
75496;SDS011;64074;47.540;19.072;2023-08-24T04:07:31;17.30;;;10.68;;
75496;SDS011;64074;47.540;19.072;2023-08-24T04:10:37;16.42;;;10.77;;
75496;SDS011;64074;47.540;19.072;2023-08-24T04:13:41;12.67;;;9.57;;
75496;SDS011;64074;47.540;19.072;2023-08-24T04:16:44;15.15;;;9.77;;
75496;SDS011;64074;47.540;19.072;2023-08-24T04:19:47;13.98;;;10.43;;
75496;SDS011;64074;47.540;19.072;2023-08-24T04:22:50;12.98;;;10.45;;
75496;SDS011;64074;47.540;19.072;2023-08-24T04:25:53;12.48;;;9.93;;
75496;SDS011;64074;47.540;19.072;2023-08-24T04:28:57;11.67;;;9.20;;
75496;SDS011;64074;47.540;19.072;2023-08-24T04:32:00;11.18;;;9.50;;
75496;SDS011;64074;47.540;19.072;2023-08-24T04:35:04;12.50;;;9.75;;
75496;SDS011;64074;47.540;19.072;2023-08-24T04:38:07;12.15;;;9.73;;
75496;SDS011;64074;47.540;19.072;2023-08-24T04:41:13;13.18;;;9.93;;
75496;SDS011;64074;47.540;19.072;2023-08-24T04:44:17;14.27;;;10.03;;
75496;SDS011;64074;47.540;19.072;2023-08-24T04:47:20;11.65;;;9.52;;
75496;SDS011;64074;47.540;19.072;2023-08-24T04:50:23;11.20;;;9.75;;
75496;SDS011;64074;47.540;19.072;2023-08-24T04:53:26;13.70;;;10.07;;
75496;SDS011;64074;47.540;19.072;2023-08-24T04:56:30;12.32;;;9.40;;
75496;SDS011;64074;47.540;19.072;2023-08-24T04:59:34;13.40;;;10.13;;
75496;SDS011;64074;47.540;19.072;2023-08-24T05:02:37;12.15;;;9.60;;
75496;SDS011;64074;47.540;19.072;2023-08-24T05:05:41;13.07;;;9.80;;
75496;SDS011;64074;47.540;19.072;2023-08-24T05:08:45;12.32;;;9.95;;
75496;SDS011;64074;47.540;19.072;2023-08-24T05:11:48;14.23;;;9.85;;
75496;SDS011;64074;47.540;19.072;2023-08-24T05:14:51;12.67;;;9.53;;
75496;SDS011;64074;47.540;19.072;2023-08-24T05:17:55;12.15;;;10.25;;
75496;SDS011;64074;47.540;19.072;2023-08-24T05:21:02;12.02;;;10.27;;
75496;SDS011;64074;47.540;19.072;2023-08-24T05:24:06;11.75;;;9.60;;
75496;SDS011;64074;47.540;19.072;2023-08-24T05:27:09;12.80;;;9.60;;
75496;SDS011;64074;47.540;19.072;2023-08-24T05:30:13;10.93;;;9.17;;
75496;SDS011;64074;47.540;19.072;2023-08-24T05:33:16;11.90;;;9.35;;
75496;SDS011;64074;47.540;19.072;2023-08-24T05:36:22;17.65;;;9.98;;
75496;SDS011;64074;47.540;19.072;2023-08-24T05:39:26;14.45;;;10.13;;
75496;SDS011;64074;47.540;19.072;2023-08-24T05:42:29;12.73;;;10.10;;
75496;SDS011;64074;47.540;19.072;2023-08-24T05:45:32;13.57;;;10.30;;
75496;SDS011;64074;47.540;19.072;2023-08-24T05:48:36;13.60;;;9.73;;
75496;SDS011;64074;47.540;19.072;2023-08-24T05:51:39;17.08;;;10.80;;
75496;SDS011;64074;47.540;19.072;2023-08-24T05:54:42;12.85;;;10.05;;
75496;SDS011;64074;47.540;19.072;2023-08-24T05:57:46;13.23;;;10.30;;
75496;SDS011;64074;47.540;19.072;2023-08-24T06:00:55;20.27;;;11.03;;
75496;SDS011;64074;47.540;19.072;2023-08-24T06:03:59;18.08;;;9.85;;
75496;SDS011;64074;47.540;19.072;2023-08-24T06:07:02;13.80;;;9.40;;
75496;SDS011;64074;47.540;19.072;2023-08-24T06:10:07;15.48;;;9.75;;
75496;SDS011;64074;47.540;19.072;2023-08-24T06:13:10;11.32;;;9.20;;
75496;SDS011;64074;47.540;19.072;2023-08-24T06:16:13;14.90;;;9.17;;
75496;SDS011;64074;47.540;19.072;2023-08-24T06:19:17;12.35;;;9.65;;
75496;SDS011;64074;47.540;19.072;2023-08-24T06:22:21;14.43;;;10.07;;
75496;SDS011;64074;47.540;19.072;2023-08-24T06:25:24;14.50;;;9.48;;
75496;SDS011;64074;47.540;19.072;2023-08-24T06:28:28;17.15;;;10.07;;
75496;SDS011;64074;47.540;19.072;2023-08-24T06:31:32;14.93;;;9.83;;
75496;SDS011;64074;47.540;19.072;2023-08-24T06:34:36;17.25;;;12.23;;
75496;SDS011;64074;47.540;19.072;2023-08-24T06:37:39;12.60;;;9.80;;
75496;SDS011;64074;47.540;19.072;2023-08-24T06:40:42;14.85;;;9.50;;
75496;SDS011;64074;47.540;19.072;2023-08-24T06:43:45;15.60;;;10.10;;
75496;SDS011;64074;47.540;19.072;2023-08-24T06:46:48;13.27;;;9.03;;
75496;SDS011;64074;47.540;19.072;2023-08-24T06:49:52;16.70;;;9.65;;
75496;SDS011;64074;47.540;19.072;2023-08-24T06:52:55;13.15;;;9.82;;
75496;SDS011;64074;47.540;19.072;2023-08-24T06:55:58;15.32;;;8.93;;
75496;SDS011;64074;47.540;19.072;2023-08-24T06:59:02;20.70;;;9.90;;
75496;SDS011;64074;47.540;19.072;2023-08-24T07:02:07;13.93;;;9.33;;
75496;SDS011;64074;47.540;19.072;2023-08-24T07:05:11;16.08;;;9.40;;
75496;SDS011;64074;47.540;19.072;2023-08-24T07:08:15;12.90;;;9.50;;
75496;SDS011;64074;47.540;19.072;2023-08-24T07:11:19;17.08;;;9.88;;
75496;SDS011;64074;47.540;19.072;2023-08-24T07:14:24;16.73;;;9.52;;
75496;SDS011;64074;47.540;19.072;2023-08-24T07:17:28;13.03;;;9.13;;
75496;SDS011;64074;47.540;19.072;2023-08-24T07:20:34;11.23;;;8.98;;
75496;SDS011;64074;47.540;19.072;2023-08-24T07:23:37;11.55;;;9.27;;
75496;SDS011;64074;47.540;19.072;2023-08-24T07:26:41;11.95;;;9.63;;
75496;SDS011;64074;47.540;19.072;2023-08-24T07:29:44;13.80;;;10.13;;
75496;SDS011;64074;47.540;19.072;2023-08-24T07:32:47;11.93;;;9.67;;
75496;SDS011;64074;47.540;19.072;2023-08-24T07:35:51;13.88;;;9.13;;
75496;SDS011;64074;47.540;19.072;2023-08-24T07:38:53;12.93;;;9.48;;
75496;SDS011;64074;47.540;19.072;2023-08-24T07:41:56;15.05;;;9.50;;
75496;SDS011;64074;47.540;19.072;2023-08-24T07:44:59;12.35;;;9.60;;
75496;SDS011;64074;47.540;19.072;2023-08-24T07:48:03;15.17;;;9.40;;
75496;SDS011;64074;47.540;19.072;2023-08-24T07:51:07;12.10;;;8.88;;
75496;SDS011;64074;47.540;19.072;2023-08-24T07:54:10;17.17;;;9.48;;
75496;SDS011;64074;47.540;19.072;2023-08-24T07:57:13;13.10;;;9.00;;
75496;SDS011;64074;47.540;19.072;2023-08-24T08:00:17;18.20;;;9.23;;
75496;SDS011;64074;47.540;19.072;2023-08-24T08:03:21;11.87;;;8.63;;
75496;SDS011;64074;47.540;19.072;2023-08-24T08:06:26;12.13;;;8.90;;
75496;SDS011;64074;47.540;19.072;2023-08-24T08:09:30;10.55;;;8.60;;
75496;SDS011;64074;47.540;19.072;2023-08-24T08:12:34;10.77;;;7.97;;
75496;SDS011;64074;47.540;19.072;2023-08-24T08:15:39;9.18;;;7.55;;
75496;SDS011;64074;47.540;19.072;2023-08-24T08:18:43;9.93;;;7.30;;
75496;SDS011;64074;47.540;19.072;2023-08-24T08:21:46;10.25;;;7.35;;
75496;SDS011;64074;47.540;19.072;2023-08-24T08:24:50;10.95;;;7.60;;
75496;SDS011;64074;47.540;19.072;2023-08-24T08:27:53;8.23;;;7.20;;
75496;SDS011;64074;47.540;19.072;2023-08-24T08:30:56;13.18;;;7.47;;
75496;SDS011;64074;47.540;19.072;2023-08-24T08:33:59;9.83;;;7.60;;
75496;SDS011;64074;47.540;19.072;2023-08-24T08:37:02;8.98;;;7.82;;
75496;SDS011;64074;47.540;19.072;2023-08-24T08:40:08;10.52;;;8.13;;
75496;SDS011;64074;47.540;19.072;2023-08-24T08:43:12;10.65;;;8.05;;
75496;SDS011;64074;47.540;19.072;2023-08-24T08:46:16;8.80;;;7.90;;
75496;SDS011;64074;47.540;19.072;2023-08-24T08:49:21;10.03;;;7.93;;
75496;SDS011;64074;47.540;19.072;2023-08-24T08:52:24;8.93;;;8.02;;
75496;SDS011;64074;47.540;19.072;2023-08-24T08:55:28;11.77;;;8.65;;
75496;SDS011;64074;47.540;19.072;2023-08-24T08:58:32;26.88;;;12.65;;
75496;SDS011;64074;47.540;19.072;2023-08-24T09:01:38;10.88;;;7.78;;
75496;SDS011;64074;47.540;19.072;2023-08-24T09:04:42;10.03;;;7.33;;
75496;SDS011;64074;47.540;19.072;2023-08-24T09:07:47;7.95;;;7.13;;
75496;SDS011;64074;47.540;19.072;2023-08-24T09:10:51;8.75;;;7.63;;
75496;SDS011;64074;47.540;19.072;2023-08-24T09:13:55;9.02;;;7.15;;
75496;SDS011;64074;47.540;19.072;2023-08-24T09:16:58;9.15;;;7.57;;
75496;SDS011;64074;47.540;19.072;2023-08-24T09:20:06;9.80;;;8.10;;
75496;SDS011;64074;47.540;19.072;2023-08-24T09:23:19;10.23;;;7.32;;
75496;SDS011;64074;47.540;19.072;2023-08-24T09:26:30;9.98;;;7.53;;
75496;SDS011;64074;47.540;19.072;2023-08-24T09:29:36;9.73;;;7.22;;
75496;SDS011;64074;47.540;19.072;2023-08-24T09:32:41;11.00;;;7.10;;
75496;SDS011;64074;47.540;19.072;2023-08-24T09:35:45;14.27;;;8.00;;
75496;SDS011;64074;47.540;19.072;2023-08-24T09:38:52;13.25;;;7.53;;
75496;SDS011;64074;47.540;19.072;2023-08-24T09:41:59;9.82;;;7.25;;
75496;SDS011;64074;47.540;19.072;2023-08-24T09:45:09;10.68;;;7.75;;
75496;SDS011;64074;47.540;19.072;2023-08-24T09:48:15;10.98;;;6.97;;
75496;SDS011;64074;47.540;19.072;2023-08-24T09:51:19;7.60;;;6.80;;
75496;SDS011;64074;47.540;19.072;2023-08-24T09:54:26;7.25;;;6.55;;
75496;SDS011;64074;47.540;19.072;2023-08-24T09:57:36;9.50;;;7.10;;
75496;SDS011;64074;47.540;19.072;2023-08-24T10:00:41;8.30;;;7.03;;
75496;SDS011;64074;47.540;19.072;2023-08-24T10:03:48;10.45;;;6.70;;
75496;SDS011;64074;47.540;19.072;2023-08-24T10:07:12;9.77;;;6.60;;
75496;SDS011;64074;47.540;19.072;2023-08-24T10:10:18;9.00;;;6.90;;
75496;SDS011;64074;47.540;19.072;2023-08-24T10:13:23;7.90;;;7.07;;
75496;SDS011;64074;47.540;19.072;2023-08-24T10:16:34;8.93;;;7.10;;
75496;SDS011;64074;47.540;19.072;2023-08-24T10:19:38;8.10;;;6.53;;
75496;SDS011;64074;47.540;19.072;2023-08-24T10:22:43;6.97;;;6.37;;
75496;SDS011;64074;47.540;19.072;2023-08-24T10:25:46;7.55;;;6.15;;
75496;SDS011;64074;47.540;19.072;2023-08-24T10:28:54;7.15;;;6.45;;
75496;SDS011;64074;47.540;19.072;2023-08-24T10:31:59;8.98;;;6.00;;
75496;SDS011;64074;47.540;19.072;2023-08-24T10:35:04;8.38;;;6.22;;
75496;SDS011;64074;47.540;19.072;2023-08-24T10:38:22;5.90;;;5.30;;
75496;SDS011;64074;47.540;19.072;2023-08-24T10:41:29;6.30;;;5.47;;
75496;SDS011;64074;47.540;19.072;2023-08-24T10:44:48;7.95;;;6.35;;
75496;SDS011;64074;47.540;19.072;2023-08-24T10:47:54;7.45;;;5.60;;
75496;SDS011;64074;47.540;19.072;2023-08-24T10:54:18;8.77;;;5.77;;
75496;SDS011;64074;47.540;19.072;2023-08-24T10:57:36;10.23;;;5.28;;
75496;SDS011;64074;47.540;19.072;2023-08-24T11:00:41;9.07;;;6.18;;
75496;SDS011;64074;47.540;19.072;2023-08-24T11:03:56;7.93;;;6.28;;
75496;SDS011;64074;47.540;19.072;2023-08-24T11:07:00;9.43;;;6.00;;
75496;SDS011;64074;47.540;19.072;2023-08-24T11:10:10;6.13;;;5.03;;
75496;SDS011;64074;47.540;19.072;2023-08-24T11:13:16;7.40;;;6.20;;
75496;SDS011;64074;47.540;19.072;2023-08-24T11:16:42;8.27;;;6.30;;
75496;SDS011;64074;47.540;19.072;2023-08-24T11:19:52;7.80;;;6.05;;
75496;SDS011;64074;47.540;19.072;2023-08-24T11:22:56;7.30;;;6.18;;
75496;SDS011;64074;47.540;19.072;2023-08-24T11:26:01;11.40;;;6.13;;
75496;SDS011;64074;47.540;19.072;2023-08-24T11:29:04;6.72;;;6.00;;
75496;SDS011;64074;47.540;19.072;2023-08-24T11:32:08;9.15;;;6.00;;
75496;SDS011;64074;47.540;19.072;2023-08-24T11:35:11;12.00;;;6.07;;
75496;SDS011;64074;47.540;19.072;2023-08-24T11:38:15;19.25;;;6.47;;
75496;SDS011;64074;47.540;19.072;2023-08-24T11:41:19;10.67;;;5.87;;
75496;SDS011;64074;47.540;19.072;2023-08-24T11:44:24;17.13;;;6.30;;
75496;SDS011;64074;47.540;19.072;2023-08-24T11:47:31;8.13;;;6.20;;
75496;SDS011;64074;47.540;19.072;2023-08-24T11:50:34;7.40;;;5.80;;
75496;SDS011;64074;47.540;19.072;2023-08-24T11:53:41;6.40;;;5.90;;
75496;SDS011;64074;47.540;19.072;2023-08-24T11:56:48;8.97;;;6.30;;
75496;SDS011;64074;47.540;19.072;2023-08-24T11:59:52;7.80;;;5.70;;
75496;SDS011;64074;47.540;19.072;2023-08-24T12:02:55;13.52;;;6.28;;
75496;SDS011;64074;47.540;19.072;2023-08-24T12:06:01;8.93;;;6.07;;
75496;SDS011;64074;47.540;19.072;2023-08-24T12:09:07;8.25;;;6.05;;
75496;SDS011;64074;47.540;19.072;2023-08-24T12:15:18;7.25;;;5.60;;
75496;SDS011;64074;47.540;19.072;2023-08-24T12:18:23;7.57;;;6.88;;
75496;SDS011;64074;47.540;19.072;2023-08-24T12:21:28;9.32;;;5.60;;
75496;SDS011;64074;47.540;19.072;2023-08-24T12:24:32;8.40;;;5.88;;
75496;SDS011;64074;47.540;19.072;2023-08-24T12:27:35;6.07;;;5.57;;
75496;SDS011;64074;47.540;19.072;2023-08-24T12:30:45;6.88;;;5.40;;
75496;SDS011;64074;47.540;19.072;2023-08-24T12:34:05;6.50;;;5.40;;
75496;SDS011;64074;47.540;19.072;2023-08-24T12:37:11;6.47;;;5.25;;
75496;SDS011;64074;47.540;19.072;2023-08-24T12:40:14;6.32;;;5.72;;
75496;SDS011;64074;47.540;19.072;2023-08-24T12:43:19;6.37;;;5.53;;
75496;SDS011;64074;47.540;19.072;2023-08-24T12:46:23;7.45;;;5.95;;
75496;SDS011;64074;47.540;19.072;2023-08-24T12:49:27;6.05;;;5.45;;
75496;SDS011;64074;47.540;19.072;2023-08-24T12:52:30;7.05;;;5.18;;
75496;SDS011;64074;47.540;19.072;2023-08-24T12:55:35;6.03;;;5.38;;
75496;SDS011;64074;47.540;19.072;2023-08-24T12:58:40;7.93;;;5.93;;
75496;SDS011;64074;47.540;19.072;2023-08-24T13:01:43;7.55;;;5.57;;
75496;SDS011;64074;47.540;19.072;2023-08-24T13:04:46;36.00;;;30.00;;
75496;SDS011;64074;47.540;19.072;2023-08-24T13:07:51;7.40;;;6.70;;
75496;SDS011;64074;47.540;19.072;2023-08-24T13:10:55;6.32;;;5.68;;
75496;SDS011;64074;47.540;19.072;2023-08-24T13:13:58;9.63;;;5.03;;
75496;SDS011;64074;47.540;19.072;2023-08-24T13:17:02;7.88;;;5.50;;
75496;SDS011;64074;47.540;19.072;2023-08-24T13:20:05;9.75;;;5.55;;
75496;SDS011;64074;47.540;19.072;2023-08-24T13:23:09;6.32;;;5.72;;
75496;SDS011;64074;47.540;19.072;2023-08-24T13:26:18;6.80;;;6.20;;
75496;SDS011;64074;47.540;19.072;2023-08-24T13:29:23;9.43;;;5.80;;
75496;SDS011;64074;47.540;19.072;2023-08-24T13:32:29;6.90;;;6.10;;
75496;SDS011;64074;47.540;19.072;2023-08-24T13:35:34;8.52;;;6.07;;
75496;SDS011;64074;47.540;19.072;2023-08-24T13:38:37;7.18;;;6.60;;
75496;SDS011;64074;47.540;19.072;2023-08-24T13:41:42;7.53;;;6.03;;
75496;SDS011;64074;47.540;19.072;2023-08-24T13:44:45;8.03;;;6.03;;
75496;SDS011;64074;47.540;19.072;2023-08-24T13:47:49;8.73;;;5.90;;
75496;SDS011;64074;47.540;19.072;2023-08-24T13:50:53;9.82;;;6.07;;
75496;SDS011;64074;47.540;19.072;2023-08-24T13:53:56;8.32;;;6.30;;
75496;SDS011;64074;47.540;19.072;2023-08-24T13:57:00;7.90;;;5.85;;
75496;SDS011;64074;47.540;19.072;2023-08-24T14:00:04;6.87;;;5.67;;
75496;SDS011;64074;47.540;19.072;2023-08-24T14:03:15;7.15;;;5.65;;
75496;SDS011;64074;47.540;19.072;2023-08-24T14:06:18;15.57;;;6.28;;
75496;SDS011;64074;47.540;19.072;2023-08-24T14:09:21;8.30;;;5.53;;
75496;SDS011;64074;47.540;19.072;2023-08-24T14:12:24;10.52;;;5.70;;
75496;SDS011;64074;47.540;19.072;2023-08-24T14:15:27;9.53;;;5.50;;
75496;SDS011;64074;47.540;19.072;2023-08-24T14:18:31;9.45;;;5.70;;
75496;SDS011;64074;47.540;19.072;2023-08-24T14:21:35;19.58;;;7.10;;
75496;SDS011;64074;47.540;19.072;2023-08-24T14:24:47;8.32;;;6.00;;
75496;SDS011;64074;47.540;19.072;2023-08-24T14:27:51;7.13;;;5.68;;
75496;SDS011;64074;47.540;19.072;2023-08-24T14:31:07;10.47;;;6.00;;
75496;SDS011;64074;47.540;19.072;2023-08-24T14:34:10;7.55;;;5.78;;
75496;SDS011;64074;47.540;19.072;2023-08-24T14:37:13;6.45;;;5.70;;
75496;SDS011;64074;47.540;19.072;2023-08-24T14:40:16;6.53;;;5.93;;
75496;SDS011;64074;47.540;19.072;2023-08-24T14:43:23;6.50;;;5.90;;
75496;SDS011;64074;47.540;19.072;2023-08-24T14:46:27;6.63;;;5.30;;
75496;SDS011;64074;47.540;19.072;2023-08-24T14:49:31;10.38;;;5.90;;
75496;SDS011;64074;47.540;19.072;2023-08-24T14:52:34;11.25;;;6.10;;
75496;SDS011;64074;47.540;19.072;2023-08-24T14:55:38;6.65;;;5.05;;
75496;SDS011;64074;47.540;19.072;2023-08-24T14:58:41;5.85;;;5.25;;
75496;SDS011;64074;47.540;19.072;2023-08-24T15:01:44;7.40;;;4.87;;
75496;SDS011;64074;47.540;19.072;2023-08-24T15:04:48;5.70;;;5.10;;
75496;SDS011;64074;47.540;19.072;2023-08-24T15:07:53;7.07;;;4.90;;
75496;SDS011;64074;47.540;19.072;2023-08-24T15:10:58;8.20;;;5.18;;
75496;SDS011;64074;47.540;19.072;2023-08-24T15:14:03;7.75;;;5.30;;
75496;SDS011;64074;47.540;19.072;2023-08-24T15:17:06;6.00;;;5.07;;
75496;SDS011;64074;47.540;19.072;2023-08-24T15:20:09;5.95;;;5.32;;
75496;SDS011;64074;47.540;19.072;2023-08-24T15:23:24;6.35;;;5.20;;
75496;SDS011;64074;47.540;19.072;2023-08-24T15:26:28;5.18;;;4.68;;
75496;SDS011;64074;47.540;19.072;2023-08-24T15:29:31;6.25;;;4.75;;
75496;SDS011;64074;47.540;19.072;2023-08-24T15:32:35;6.20;;;4.87;;
75496;SDS011;64074;47.540;19.072;2023-08-24T15:35:41;5.35;;;4.70;;
75496;SDS011;64074;47.540;19.072;2023-08-24T15:38:45;5.22;;;4.60;;
75496;SDS011;64074;47.540;19.072;2023-08-24T15:41:49;9.55;;;5.07;;
75496;SDS011;64074;47.540;19.072;2023-08-24T15:44:52;6.75;;;4.80;;
75496;SDS011;64074;47.540;19.072;2023-08-24T15:47:56;9.63;;;4.90;;
75496;SDS011;64074;47.540;19.072;2023-08-24T15:51:00;7.43;;;4.80;;
75496;SDS011;64074;47.540;19.072;2023-08-24T15:54:04;7.57;;;5.07;;
75496;SDS011;64074;47.540;19.072;2023-08-24T15:57:07;6.50;;;5.15;;
75496;SDS011;64074;47.540;19.072;2023-08-24T16:00:12;7.43;;;5.05;;
75496;SDS011;64074;47.540;19.072;2023-08-24T16:03:15;6.73;;;4.73;;
75496;SDS011;64074;47.540;19.072;2023-08-24T16:06:19;5.10;;;4.70;;
75496;SDS011;64074;47.540;19.072;2023-08-24T16:09:22;6.45;;;4.85;;
75496;SDS011;64074;47.540;19.072;2023-08-24T16:12:25;7.25;;;4.75;;
75496;SDS011;64074;47.540;19.072;2023-08-24T16:15:29;6.75;;;5.10;;
75496;SDS011;64074;47.540;19.072;2023-08-24T16:18:32;7.80;;;5.10;;
75496;SDS011;64074;47.540;19.072;2023-08-24T16:21:36;8.32;;;5.20;;
75496;SDS011;64074;47.540;19.072;2023-08-24T16:24:39;7.57;;;5.07;;
75496;SDS011;64074;47.540;19.072;2023-08-24T16:27:42;5.30;;;4.80;;
75496;SDS011;64074;47.540;19.072;2023-08-24T16:30:46;7.60;;;4.95;;
75496;SDS011;64074;47.540;19.072;2023-08-24T16:33:51;5.50;;;4.73;;
75496;SDS011;64074;47.540;19.072;2023-08-24T16:36:54;8.70;;;5.15;;
75496;SDS011;64074;47.540;19.072;2023-08-24T16:39:57;6.70;;;5.32;;
75496;SDS011;64074;47.540;19.072;2023-08-24T16:43:00;6.70;;;5.13;;
75496;SDS011;64074;47.540;19.072;2023-08-24T16:46:04;8.93;;;5.18;;
75496;SDS011;64074;47.540;19.072;2023-08-24T16:49:07;9.47;;;5.27;;
75496;SDS011;64074;47.540;19.072;2023-08-24T16:52:10;5.72;;;5.05;;
75496;SDS011;64074;47.540;19.072;2023-08-24T16:55:13;7.22;;;5.25;;
75496;SDS011;64074;47.540;19.072;2023-08-24T16:58:18;7.00;;;5.25;;
75496;SDS011;64074;47.540;19.072;2023-08-24T17:01:21;6.00;;;5.20;;
75496;SDS011;64074;47.540;19.072;2023-08-24T17:04:25;6.97;;;5.60;;
75496;SDS011;64074;47.540;19.072;2023-08-24T17:07:28;7.15;;;5.07;;
75496;SDS011;64074;47.540;19.072;2023-08-24T17:10:33;9.73;;;6.07;;
75496;SDS011;64074;47.540;19.072;2023-08-24T17:13:38;10.93;;;5.20;;
75496;SDS011;64074;47.540;19.072;2023-08-24T17:16:42;10.10;;;5.40;;
75496;SDS011;64074;47.540;19.072;2023-08-24T17:19:45;7.30;;;5.07;;
75496;SDS011;64074;47.540;19.072;2023-08-24T17:22:48;8.80;;;4.95;;
75496;SDS011;64074;47.540;19.072;2023-08-24T17:25:51;9.30;;;5.30;;
75496;SDS011;64074;47.540;19.072;2023-08-24T17:28:55;6.95;;;5.13;;
75496;SDS011;64074;47.540;19.072;2023-08-24T17:31:59;9.80;;;6.45;;
75496;SDS011;64074;47.540;19.072;2023-08-24T17:35:02;7.80;;;5.10;;
75496;SDS011;64074;47.540;19.072;2023-08-24T17:38:05;5.88;;;5.20;;
75496;SDS011;64074;47.540;19.072;2023-08-24T17:41:09;8.82;;;5.00;;
75496;SDS011;64074;47.540;19.072;2023-08-24T17:44:12;9.02;;;5.30;;
75496;SDS011;64074;47.540;19.072;2023-08-24T17:47:15;12.18;;;5.80;;
75496;SDS011;64074;47.540;19.072;2023-08-24T17:50:19;12.77;;;5.40;;
75496;SDS011;64074;47.540;19.072;2023-08-24T17:53:23;9.90;;;7.15;;
75496;SDS011;64074;47.540;19.072;2023-08-24T17:56:32;10.73;;;7.47;;
75496;SDS011;64074;47.540;19.072;2023-08-24T17:59:36;11.63;;;6.35;;
75496;SDS011;64074;47.540;19.072;2023-08-24T18:02:41;9.88;;;6.32;;
75496;SDS011;64074;47.540;19.072;2023-08-24T18:05:44;13.70;;;6.10;;
75496;SDS011;64074;47.540;19.072;2023-08-24T18:08:47;11.18;;;5.93;;
75496;SDS011;64074;47.540;19.072;2023-08-24T18:11:53;11.63;;;6.07;;
75496;SDS011;64074;47.540;19.072;2023-08-24T18:14:56;12.60;;;6.18;;